createdAt,value
2023-03-10T00:00:41.201Z,75.42
2023-03-10T00:04:01.022Z,75.92
2023-03-10T00:07:05.048Z,75.91
2023-03-10T00:10:12.586Z,75.86
2023-03-10T00:13:16.517Z,75.77
2023-03-10T00:16:24.389Z,76.07
2023-03-10T00:19:28.363Z,76.04
2023-03-10T00:22:32.353Z,75.97
2023-03-10T00:25:36.386Z,76.04
2023-03-10T00:28:40.493Z,76.37
2023-03-10T00:31:45.216Z,76.45
2023-03-10T00:34:49.158Z,76.79
2023-03-10T00:37:53.435Z,76.62
2023-03-10T00:41:00.020Z,76.88
2023-03-10T00:44:06.828Z,76.83
2023-03-10T00:47:10.835Z,76.78
2023-03-10T00:50:14.858Z,77.05
2023-03-10T00:53:19.024Z,76.89
2023-03-10T00:56:25.345Z,77.21
2023-03-10T00:59:34.927Z,77.18
2023-03-10T01:02:44.615Z,77.47
2023-03-10T01:05:49.881Z,77.35
2023-03-10T01:08:54.321Z,77.46
2023-03-10T01:11:58.257Z,77.21
2023-03-10T01:15:03.226Z,77.55
2023-03-10T01:18:08.576Z,77.63
2023-03-10T01:21:19.989Z,77.55
2023-03-10T01:24:23.959Z,77.75
2023-03-10T01:27:27.914Z,77.78
2023-03-10T01:30:31.886Z,77.59
2023-03-10T01:33:39.737Z,77.94
2023-03-10T01:36:43.754Z,77.74
2023-03-10T01:39:47.763Z,78.14
2023-03-10T01:42:51.727Z,78.25
2023-03-10T01:46:01.634Z,78.02
2023-03-10T01:49:12.858Z,78.07
2023-03-10T01:52:25.786Z,77.83
2023-03-10T01:55:33.548Z,77.93
2023-03-10T01:58:42.576Z,78.13
2023-03-10T02:01:46.777Z,77.95
2023-03-10T02:04:54.297Z,78.01
2023-03-10T02:08:00.443Z,77.89
2023-03-10T02:11:05.470Z,78.02
2023-03-10T02:14:09.490Z,77.87
2023-03-10T02:17:17.229Z,78.01
2023-03-10T02:20:50.932Z,77.84
2023-03-10T02:24:21.475Z,78.21
2023-03-10T02:27:29.860Z,78.23
2023-03-10T02:30:38.821Z,77.97
2023-03-10T02:33:45.193Z,78.09
2023-03-10T02:36:49.218Z,78.03
2023-03-10T02:39:53.321Z,78.08
2023-03-10T02:43:00.130Z,78.02
2023-03-10T02:46:06.702Z,78.16
2023-03-10T02:49:12.629Z,78.13
2023-03-10T02:52:38.298Z,78.17
2023-03-10T02:55:43.164Z,78.29
2023-03-10T02:58:47.322Z,78.51
2023-03-10T03:01:51.643Z,78.43
2023-03-10T03:04:56.580Z,78.40
2023-03-10T03:08:01.002Z,78.37
2023-03-10T03:11:05.952Z,78.41
2023-03-10T03:14:10.376Z,78.64
2023-03-10T03:17:15.061Z,78.65
2023-03-10T03:20:19.320Z,78.38
2023-03-10T03:23:23.651Z,78.43
2023-03-10T03:26:28.886Z,78.68
2023-03-10T03:29:40.477Z,78.68
2023-03-10T03:32:44.713Z,78.86
2023-03-10T03:35:49.216Z,78.97
2023-03-10T03:38:54.547Z,78.97
2023-03-10T03:41:58.898Z,79.12
2023-03-10T03:45:08.087Z,79.17
2023-03-10T03:48:13.921Z,79.13
2023-03-10T03:51:18.415Z,79.30
2023-03-10T03:54:22.536Z,79.43
2023-03-10T03:57:27.117Z,79.57
2023-03-10T04:00:31.309Z,79.79
2023-03-10T04:03:38.734Z,79.78
2023-03-10T04:06:43.106Z,79.61
2023-03-10T04:09:48.025Z,79.62
2023-03-10T04:12:52.611Z,79.70
2023-03-10T04:16:00.591Z,79.73
2023-03-10T04:19:09.001Z,79.80
2023-03-10T04:22:15.476Z,79.76
2023-03-10T04:25:21.034Z,79.71
2023-03-10T04:28:25.964Z,80.05
2023-03-10T04:31:30.321Z,80.15
2023-03-10T04:34:35.801Z,80.11
2023-03-10T04:37:40.636Z,80.15
2023-03-10T04:40:45.454Z,80.28
2023-03-10T04:43:49.723Z,79.97
2023-03-10T04:46:54.665Z,80.17
2023-03-10T04:49:59.636Z,80.37
2023-03-10T04:53:03.929Z,80.47
2023-03-10T04:56:09.245Z,80.65
2023-03-10T04:59:14.413Z,80.43
2023-03-10T05:02:18.846Z,80.77
2023-03-10T05:05:23.071Z,80.61
2023-03-10T05:08:27.360Z,80.68
2023-03-10T05:11:32.223Z,80.76
2023-03-10T05:14:37.678Z,81.08
2023-03-10T05:17:42.312Z,81.02
2023-03-10T05:20:56.824Z,81.07
2023-03-10T05:24:02.313Z,80.98
2023-03-10T05:27:08.355Z,81.31
2023-03-10T05:30:16.004Z,81.21
2023-03-10T05:33:22.036Z,81.31
2023-03-10T05:36:27.779Z,81.33
2023-03-10T05:39:31.960Z,81.33
2023-03-10T05:42:38.895Z,81.21
2023-03-10T05:45:42.951Z,81.14
2023-03-10T05:48:47.135Z,80.99
2023-03-10T05:51:51.543Z,80.91
2023-03-10T05:54:56.152Z,81.02
2023-03-10T05:58:00.273Z,80.88
2023-03-10T06:01:04.740Z,80.91
2023-03-10T06:04:08.983Z,80.78
2023-03-10T06:07:13.170Z,80.99
2023-03-10T06:10:17.285Z,81.01
2023-03-10T06:13:21.424Z,81.20
2023-03-10T06:16:25.768Z,81.17
2023-03-10T06:19:30.030Z,81.04
2023-03-10T06:22:34.069Z,81.05
2023-03-10T06:25:38.390Z,81.03
2023-03-10T06:28:45.486Z,80.93
2023-03-10T06:31:49.770Z,80.86
2023-03-10T06:34:53.817Z,80.87
2023-03-10T06:37:58.096Z,80.92
2023-03-10T06:41:02.169Z,80.97
2023-03-10T06:44:06.176Z,80.71
2023-03-10T06:47:10.354Z,80.65
2023-03-10T06:50:15.009Z,80.56
2023-03-10T06:53:19.746Z,80.68
2023-03-10T06:56:23.687Z,80.60
2023-03-10T06:59:27.716Z,80.43
2023-03-10T07:02:31.986Z,80.42
2023-03-10T07:05:35.981Z,80.42
2023-03-10T07:08:40.138Z,80.13
2023-03-10T07:11:44.156Z,80.14
2023-03-10T07:14:48.272Z,80.10
2023-03-10T07:17:52.730Z,79.99
2023-03-10T07:20:57.195Z,80.04
2023-03-10T07:24:01.346Z,79.77
2023-03-10T07:27:05.791Z,80.03
2023-03-10T07:30:10.606Z,79.84
2023-03-10T07:33:15.524Z,80.01
2023-03-10T07:36:20.927Z,79.79
2023-03-10T07:39:25.310Z,79.73
2023-03-10T07:42:29.364Z,79.91
2023-03-10T07:45:34.777Z,79.84
2023-03-10T07:48:39.510Z,79.90
2023-03-10T07:51:43.639Z,79.72
2023-03-10T07:54:48.333Z,79.59
2023-03-10T07:57:53.606Z,79.48
2023-03-10T08:00:58.756Z,79.37
2023-03-10T08:04:03.393Z,79.23
2023-03-10T08:07:09.144Z,79.06
2023-03-10T08:10:13.237Z,79.06
2023-03-10T08:13:17.552Z,79.07
2023-03-10T08:16:24.274Z,78.89
2023-03-10T08:19:28.678Z,79.01
2023-03-10T08:22:33.445Z,79.04
2023-03-10T08:25:38.125Z,78.99
2023-03-10T08:28:42.295Z,79.01
2023-03-10T08:31:47.074Z,79.07
2023-03-10T08:34:51.498Z,78.92
2023-03-10T08:37:55.600Z,79.09
2023-03-10T08:41:09.597Z,78.98
2023-03-10T08:44:15.751Z,78.99
2023-03-10T08:47:20.077Z,79.16
2023-03-10T08:50:24.071Z,78.97
2023-03-10T08:53:28.615Z,79.01
2023-03-10T08:56:32.952Z,78.91
2023-03-10T08:59:36.996Z,79.10
2023-03-10T09:02:40.969Z,78.85
2023-03-10T09:05:45.663Z,78.88
2023-03-10T09:08:50.760Z,78.76
2023-03-10T09:11:54.970Z,78.71
2023-03-10T09:14:58.986Z,78.69
2023-03-10T09:18:03.006Z,78.56
2023-03-10T09:21:08.235Z,78.66
2023-03-10T09:24:12.263Z,78.63
2023-03-10T09:27:16.292Z,78.63
2023-03-10T09:30:20.398Z,78.57
2023-03-10T09:33:25.229Z,78.66
2023-03-10T09:36:29.979Z,78.49
2023-03-10T09:39:34.869Z,78.47
2023-03-10T09:42:51.512Z,78.37
2023-03-10T09:46:05.189Z,78.37
2023-03-10T09:49:23.288Z,78.46
2023-03-10T09:52:38.496Z,78.52
2023-03-10T09:55:48.029Z,78.33
2023-03-10T09:59:25.454Z,78.22
2023-03-10T10:02:37.017Z,78.18
2023-03-10T10:05:42.871Z,78.23
2023-03-10T10:09:05.114Z,78.35
2023-03-10T10:12:12.811Z,78.24
2023-03-10T10:15:22.365Z,78.41
2023-03-10T10:18:43.052Z,78.41
2023-03-10T10:21:52.517Z,78.25
2023-03-10T10:25:08.815Z,77.96
2023-03-10T10:28:20.912Z,78.02
2023-03-10T10:31:28.478Z,78.24
2023-03-10T10:34:34.161Z,77.92
2023-03-10T10:37:42.980Z,77.79
2023-03-10T10:40:50.929Z,77.34
2023-03-10T10:44:15.306Z,77.27
2023-03-10T10:47:28.923Z,77.28
2023-03-10T10:50:35.375Z,77.19
2023-03-10T10:53:42.612Z,77.19
2023-03-10T10:56:55.849Z,77.47
2023-03-10T11:00:18.610Z,77.27
2023-03-10T11:03:37.466Z,77.14
2023-03-10T11:06:41.590Z,76.70
2023-03-10T11:09:48.345Z,76.51
2023-03-10T11:13:02.834Z,76.19
2023-03-10T11:16:22.880Z,76.13
2023-03-10T11:19:44.038Z,75.99
2023-03-10T11:23:19.081Z,75.72
2023-03-10T11:26:48.083Z,75.87
2023-03-10T11:30:13.511Z,75.61
2023-03-10T11:33:28.121Z,75.34
2023-03-10T11:36:56.250Z,75.44
2023-03-10T11:40:16.545Z,75.34
2023-03-10T11:43:48.308Z,75.24
2023-03-10T11:47:15.213Z,74.58
2023-03-10T11:51:04.437Z,74.63
2023-03-10T11:54:14.396Z,74.27
2023-03-10T11:57:24.862Z,73.99
2023-03-10T12:00:38.306Z,73.51
2023-03-10T12:04:14.159Z,73.50
2023-03-10T12:07:37.331Z,73.05
2023-03-10T12:10:42.238Z,72.89
2023-03-10T12:13:57.070Z,72.52
2023-03-10T12:17:03.416Z,72.33
2023-03-10T12:20:12.317Z,71.68
2023-03-10T12:23:22.375Z,71.40
2023-03-10T12:26:38.659Z,71.11
2023-03-10T12:29:43.158Z,70.69
2023-03-10T12:32:47.874Z,70.89
2023-03-10T12:35:55.667Z,70.36
2023-03-10T12:39:18.921Z,69.75
2023-03-10T12:42:28.477Z,69.40
2023-03-10T12:45:46.577Z,69.86
2023-03-10T12:49:02.100Z,68.61
2023-03-10T12:52:24.889Z,68.42
2023-03-10T12:55:29.380Z,68.38
2023-03-10T12:58:36.364Z,67.74
2023-03-10T13:01:55.521Z,67.22
2023-03-10T13:05:07.592Z,67.13
2023-03-10T13:08:22.697Z,67.09
2023-03-10T13:11:48.928Z,67.00
2023-03-10T13:14:57.074Z,66.99
2023-03-10T13:18:23.143Z,66.34
2023-03-10T13:21:37.771Z,66.41
2023-03-10T13:24:43.427Z,66.24
2023-03-10T13:27:47.545Z,66.04
2023-03-10T13:30:52.007Z,65.85
2023-03-10T13:33:57.731Z,65.86
2023-03-10T13:37:04.612Z,65.82
2023-03-10T13:40:10.978Z,65.75
2023-03-10T13:43:29.615Z,65.51
2023-03-10T13:46:34.472Z,65.94
2023-03-10T13:49:38.986Z,65.43
2023-03-10T13:52:59.724Z,65.50
2023-03-10T13:56:25.622Z,65.23
2023-03-10T13:59:32.316Z,65.17
2023-03-10T14:02:37.818Z,65.60
2023-03-10T14:05:49.274Z,65.59
2023-03-10T14:08:54.032Z,65.03
2023-03-10T14:11:58.097Z,64.78
2023-03-10T14:15:14.181Z,64.89
2023-03-10T14:18:19.756Z,64.57
2023-03-10T14:21:34.133Z,64.77
2023-03-10T14:24:38.130Z,64.79
2023-03-10T14:27:45.293Z,64.69
2023-03-10T14:30:49.390Z,64.68
2023-03-10T14:33:53.553Z,64.82
2023-03-10T14:36:57.567Z,64.48
2023-03-10T14:40:01.584Z,64.92
2023-03-10T14:43:05.991Z,64.56
2023-03-10T14:46:12.822Z,64.48
2023-03-10T14:49:17.521Z,64.31
2023-03-10T14:52:21.742Z,64.20
2023-03-10T14:55:25.867Z,64.66
2023-03-10T14:58:40.320Z,63.71
2023-03-10T15:01:44.863Z,62.69
2023-03-10T15:04:49.164Z,62.12
2023-03-10T15:07:53.585Z,62.26
2023-03-10T15:10:57.616Z,62.23
2023-03-10T15:14:02.554Z,61.98
2023-03-10T15:17:06.575Z,62.15
2023-03-10T15:20:19.218Z,62.31
2023-03-10T15:23:23.124Z,61.90
2023-03-10T15:26:27.114Z,61.81
2023-03-10T15:29:31.132Z,62.45
2023-03-10T15:32:35.508Z,62.19
2023-03-10T15:35:40.675Z,62.26
2023-03-10T15:38:44.603Z,62.10
2023-03-10T15:41:48.898Z,62.18
2023-03-10T15:44:52.974Z,62.10
2023-03-10T15:47:58.184Z,62.24
2023-03-10T15:51:02.336Z,62.02
2023-03-10T15:54:06.420Z,62.37
2023-03-10T15:57:10.394Z,63.05
2023-03-10T16:00:16.964Z,62.88
2023-03-10T16:03:21.077Z,62.93
2023-03-10T16:06:27.508Z,62.97
2023-03-10T16:09:31.519Z,63.50
2023-03-10T16:12:35.965Z,63.56
2023-03-10T16:15:39.899Z,63.69
2023-03-10T16:18:46.027Z,63.68
2023-03-10T16:21:50.052Z,63.49
2023-03-10T16:24:54.069Z,64.14
2023-03-10T16:27:58.078Z,64.18
2023-03-10T16:31:04.400Z,64.25
2023-03-10T16:34:08.466Z,64.05
2023-03-10T16:37:12.488Z,64.77
2023-03-10T16:40:16.605Z,64.57
2023-03-10T16:43:21.940Z,64.95
2023-03-10T16:46:30.290Z,65.42
2023-03-10T16:49:36.491Z,65.29
2023-03-10T16:52:42.394Z,65.31
2023-03-10T16:55:46.411Z,65.73
2023-03-10T16:58:51.315Z,66.07
2023-03-10T17:01:55.272Z,66.50
2023-03-10T17:04:59.274Z,66.56
2023-03-10T17:08:06.117Z,66.76
2023-03-10T17:11:23.089Z,66.83
2023-03-10T17:14:27.134Z,67.18
2023-03-10T17:17:32.657Z,66.86
2023-03-10T17:20:36.660Z,67.26
2023-03-10T17:23:40.878Z,67.62
2023-03-10T17:26:45.164Z,67.76
2023-03-10T17:29:49.103Z,67.44
2023-03-10T17:32:53.175Z,67.93
2023-03-10T17:35:57.264Z,67.73
2023-03-10T17:39:03.018Z,68.22
2023-03-10T17:42:07.125Z,68.18
2023-03-10T17:45:11.956Z,68.23
2023-03-10T17:48:15.866Z,68.63
2023-03-10T17:51:23.449Z,68.75
2023-03-10T17:54:27.488Z,68.82
2023-03-10T17:57:31.492Z,69.00
2023-03-10T18:00:35.393Z,69.14
2023-03-10T18:03:40.177Z,69.28
2023-03-10T18:06:44.151Z,69.34
2023-03-10T18:09:48.186Z,69.49
2023-03-10T18:12:52.298Z,69.51
2023-03-10T18:15:56.409Z,69.70
2023-03-10T18:19:01.240Z,69.93
2023-03-10T18:22:05.831Z,69.89
2023-03-10T18:25:10.407Z,70.28
2023-03-10T18:28:18.222Z,69.98
2023-03-10T18:31:28.310Z,70.34
2023-03-10T18:34:32.611Z,70.51
2023-03-10T18:37:36.914Z,70.42
2023-03-10T18:40:41.667Z,70.45
2023-03-10T18:43:45.945Z,70.56
2023-03-10T18:46:49.946Z,70.65
2023-03-10T18:49:53.976Z,70.60
2023-03-10T18:52:57.896Z,70.70
2023-03-10T18:56:01.833Z,70.85
2023-03-10T18:59:05.854Z,70.90
2023-03-10T19:02:14.757Z,70.91
2023-03-10T19:05:19.302Z,71.07
2023-03-10T19:08:23.320Z,71.19
2023-03-10T19:11:35.380Z,71.06
2023-03-10T19:14:39.443Z,71.16
2023-03-10T19:17:43.667Z,71.27
2023-03-10T19:20:47.807Z,71.48
2023-03-10T19:23:51.765Z,71.63
2023-03-10T19:26:56.764Z,71.42
2023-03-10T19:30:00.744Z,71.48
2023-03-10T19:33:04.707Z,71.65
2023-03-10T19:36:13.042Z,71.73
2023-03-10T19:39:17.308Z,71.95
2023-03-10T19:42:21.321Z,71.90
2023-03-10T19:45:25.341Z,71.93
2023-03-10T19:48:30.115Z,72.11
2023-03-10T19:51:33.948Z,72.21
2023-03-10T19:54:38.212Z,72.13
2023-03-10T19:57:43.234Z,72.22
2023-03-10T20:00:47.687Z,72.28
2023-03-10T20:03:56.751Z,72.42
2023-03-10T20:07:01.093Z,72.36
2023-03-10T20:10:06.679Z,72.17
2023-03-10T20:13:11.004Z,72.46
2023-03-10T20:16:16.189Z,72.46
2023-03-10T20:19:22.743Z,72.24
2023-03-10T20:22:26.767Z,72.05
2023-03-10T20:25:30.719Z,72.47
2023-03-10T20:28:36.508Z,72.23
2023-03-10T20:31:40.808Z,72.40
2023-03-10T20:34:44.852Z,72.31
2023-03-10T20:37:48.861Z,72.25
2023-03-10T20:40:52.987Z,72.47
2023-03-10T20:43:56.906Z,72.39
2023-03-10T20:47:00.894Z,72.44
2023-03-10T20:50:11.871Z,72.44
2023-03-10T20:53:15.811Z,72.43
2023-03-10T20:56:19.717Z,72.58
2023-03-10T20:59:23.938Z,72.54
2023-03-10T21:02:27.950Z,72.71
2023-03-10T21:05:31.950Z,72.33
2023-03-10T21:08:36.082Z,72.59
2023-03-10T21:11:40.814Z,72.71
2023-03-10T21:14:45.349Z,72.79
2023-03-10T21:17:50.055Z,72.65
2023-03-10T21:20:54.091Z,72.77
2023-03-10T21:23:58.109Z,72.49
2023-03-10T21:27:02.120Z,72.68
2023-03-10T21:30:10.136Z,72.90
2023-03-10T21:33:14.474Z,72.77
2023-03-10T21:36:22.269Z,73.01
2023-03-10T21:39:26.677Z,72.75
2023-03-10T21:42:30.713Z,73.13
2023-03-10T21:45:37.428Z,73.02
2023-03-10T21:48:42.001Z,72.73
2023-03-10T21:51:45.933Z,73.06
2023-03-10T21:54:49.951Z,72.82
2023-03-10T21:57:53.864Z,72.95
2023-03-10T22:00:57.772Z,72.84
2023-03-10T22:04:01.794Z,73.02
2023-03-10T22:07:06.701Z,73.21
2023-03-10T22:10:12.345Z,73.07
2023-03-10T22:13:16.391Z,73.41
2023-03-10T22:16:20.564Z,73.41
2023-03-10T22:19:24.725Z,73.60
2023-03-10T22:22:28.754Z,73.99
2023-03-10T22:25:34.712Z,74.14
2023-03-10T22:28:39.333Z,74.13
2023-03-10T22:31:43.282Z,74.26
2023-03-10T22:34:47.207Z,74.43
2023-03-10T22:37:54.885Z,74.54
2023-03-10T22:40:59.484Z,74.82
2023-03-10T22:44:03.408Z,74.94
2023-03-10T22:47:07.523Z,75.00
2023-03-10T22:50:16.167Z,74.58
2023-03-10T22:53:21.104Z,74.95
2023-03-10T22:56:25.032Z,74.94
2023-03-10T22:59:29.030Z,74.75
2023-03-10T23:02:33.061Z,74.96
2023-03-10T23:05:37.848Z,74.93
2023-03-10T23:08:43.779Z,74.94
2023-03-10T23:11:49.177Z,75.02
2023-03-10T23:14:53.294Z,74.96
2023-03-10T23:17:57.725Z,74.88
2023-03-10T23:21:02.011Z,74.67
2023-03-10T23:24:06.356Z,74.63
2023-03-10T23:27:10.335Z,74.60
2023-03-10T23:30:15.110Z,74.59
2023-03-10T23:33:22.829Z,74.62
2023-03-10T23:36:26.750Z,74.38
2023-03-10T23:39:30.684Z,74.39
2023-03-10T23:42:34.652Z,74.24
2023-03-10T23:45:38.913Z,74.12
2023-03-10T23:48:43.100Z,74.32
2023-03-10T23:51:48.892Z,73.98
2023-03-10T23:54:53.676Z,74.10
2023-03-10T23:57:57.913Z,73.97
